Time;durP1;ratioP1;P1;durP2;ratioP2;P2;SDS_P1;SDS_P2;PMS_P1;PMS_P2;Temp;Humidity;BMP_temperature;BMP_pressure;BME280_temperature;BME280_humidity;BME280_pressure;Samples;Min_cycle;Max_cycle;Signal;HPM_P1;HPM_P2
2023/12/24 00:00:29;;;;;;;4.33;1.30;;;11.40;99.90;;;;;;5114759;28;20622;-73
2023/12/24 00:02:54;;;;;;;2.80;0.90;;;11.40;99.90;;;;;;5114976;28;20213;-74
2023/12/24 00:05:20;;;;;;;2.67;0.80;;;11.40;99.90;;;;;;5114908;28;20179;-73
2023/12/24 00:07:45;;;;;;;2.53;1.00;;;11.40;99.90;;;;;;5114848;28;20239;-73
2023/12/24 00:10:11;;;;;;;5.07;1.43;;;11.50;99.90;;;;;;5115311;28;20671;-73
2023/12/24 00:12:38;;;;;;;2.57;1.07;;;11.50;99.90;;;;;;5114449;28;20183;-73
2023/12/24 00:15:05;;;;;;;3.00;1.17;;;11.50;99.90;;;;;;5114345;28;20199;-72
2023/12/24 00:17:31;;;;;;;2.27;1.03;;;11.40;99.90;;;;;;5114629;28;20210;-72
2023/12/24 00:19:58;;;;;;;4.17;1.40;;;11.40;99.90;;;;;;5114782;28;20171;-73
2023/12/24 00:22:23;;;;;;;2.67;1.07;;;11.40;99.90;;;;;;5114621;28;20186;-72
2023/12/24 00:24:49;;;;;;;2.37;1.00;;;11.30;99.90;;;;;;5114506;28;20619;-73
2023/12/24 00:27:15;;;;;;;2.20;1.13;;;11.30;99.90;;;;;;5114112;28;20297;-73
2023/12/24 00:29:40;;;;;;;4.90;1.40;;;11.30;99.90;;;;;;5114198;28;20171;-73
2023/12/24 00:32:06;;;;;;;7.67;1.27;;;11.20;99.90;;;;;;5114539;28;20171;-73
2023/12/24 00:34:32;;;;;;;3.00;1.47;;;11.20;99.90;;;;;;5095994;28;20177;-73
2023/12/24 00:36:57;;;;;;;2.93;1.23;;;11.20;99.90;;;;;;5114227;28;20673;-73
2023/12/24 00:39:23;;;;;;;3.53;1.27;;;11.20;99.90;;;;;;5114349;28;20195;-73
2023/12/24 00:41:48;;;;;;;3.10;1.60;;;11.30;99.90;;;;;;5114318;28;20183;-74
2023/12/24 00:44:14;;;;;;;3.03;1.37;;;11.30;99.90;;;;;;5113843;28;20167;-73
2023/12/24 00:46:39;;;;;;;4.07;1.50;;;11.30;99.90;;;;;;5114184;28;20179;-72
2023/12/24 00:49:05;;;;;;;6.47;1.70;;;11.40;99.90;;;;;;5114392;28;20179;-73
2023/12/24 00:51:30;;;;;;;1.73;1.40;;;11.40;99.90;;;;;;5114181;28;20175;-73
2023/12/24 00:53:56;;;;;;;2.53;1.40;;;11.40;99.90;;;;;;5114099;28;20198;-73
2023/12/24 00:56:21;;;;;;;2.87;1.33;;;11.40;99.90;;;;;;5113684;28;20194;-73
2023/12/24 00:58:47;;;;;;;3.40;1.33;;;11.40;99.90;;;;;;5113940;28;20170;-72
2023/12/24 01:01:12;;;;;;;3.43;1.47;;;11.30;99.90;;;;;;5113924;28;20179;-73
2023/12/24 01:03:38;;;;;;;2.67;2.10;;;11.30;99.90;;;;;;5114041;28;20174;-73
2023/12/24 01:06:04;;;;;;;4.43;2.43;;;11.30;99.90;;;;;;5114138;28;20175;-73
2023/12/24 01:08:29;;;;;;;5.53;2.57;;;11.10;99.90;;;;;;5113922;28;20203;-73
2023/12/24 01:10:55;;;;;;;4.67;2.80;;;11.10;99.90;;;;;;5113500;28;20214;-73
2023/12/24 01:13:20;;;;;;;5.27;2.90;;;11.00;99.90;;;;;;5113561;28;20207;-72
2023/12/24 01:15:46;;;;;;;3.10;2.13;;;11.10;99.90;;;;;;5113620;28;20227;-73
2023/12/24 01:18:15;;;;;;;5.47;1.80;;;11.10;99.90;;;;;;5113810;28;20220;-72
2023/12/24 01:20:41;;;;;;;2.17;1.80;;;11.10;99.90;;;;;;5113813;28;20159;-73
2023/12/24 01:23:07;;;;;;;1.40;1.30;;;11.10;99.90;;;;;;5113654;28;20553;-73
2023/12/24 01:25:33;;;;;;;2.87;1.60;;;11.10;99.90;;;;;;5113438;28;20167;-73
2023/12/24 01:27:59;;;;;;;3.40;1.80;;;11.10;99.90;;;;;;5113236;28;20218;-72
2023/12/24 01:30:24;;;;;;;2.90;1.67;;;11.10;99.90;;;;;;5113552;28;20243;-72
2023/12/24 01:32:50;;;;;;;2.40;1.60;;;11.10;99.90;;;;;;5113623;28;20253;-72
2023/12/24 01:35:16;;;;;;;2.63;1.67;;;11.10;99.90;;;;;;5113454;28;20220;-72
2023/12/24 01:37:41;;;;;;;3.57;2.23;;;11.10;99.90;;;;;;5113404;28;20257;-73
2023/12/24 01:40:08;;;;;;;1.77;1.67;;;11.00;99.90;;;;;;5113139;28;20171;-73
2023/12/24 01:42:33;;;;;;;2.10;1.90;;;11.00;99.90;;;;;;5113472;28;20659;-73
2023/12/24 01:44:59;;;;;;;3.67;1.77;;;11.00;99.90;;;;;;5113373;28;20168;-72
2023/12/24 01:47:25;;;;;;;1.90;1.80;;;10.90;99.90;;;;;;5113362;28;20217;-73
2023/12/24 01:49:51;;;;;;;2.83;1.90;;;11.10;99.90;;;;;;5113453;28;20194;-72
2023/12/24 01:52:18;;;;;;;3.00;1.87;;;10.90;99.90;;;;;;5113527;28;20179;-72
2023/12/24 01:54:47;;;;;;;1.67;1.57;;;10.90;99.90;;;;;;5112885;28;20174;-73
2023/12/24 01:57:13;;;;;;;2.00;1.80;;;10.90;99.90;;;;;;5113324;28;20198;-73
2023/12/24 01:59:40;;;;;;;1.83;1.73;;;10.90;99.90;;;;;;5113390;28;20224;-72
2023/12/24 02:02:06;;;;;;;5.43;1.80;;;10.90;99.90;;;;;;5113356;28;20199;-73
2023/12/24 02:04:32;;;;;;;3.43;1.50;;;10.80;99.90;;;;;;5113144;28;20171;-72
2023/12/24 02:06:58;;;;;;;3.90;1.30;;;10.70;99.90;;;;;;5113197;28;20224;-73
2023/12/24 02:09:23;;;;;;;2.00;1.37;;;10.80;99.90;;;;;;5112808;28;20257;-72
2023/12/24 02:11:50;;;;;;;1.27;1.03;;;10.80;99.90;;;;;;5113217;28;20511;-72
2023/12/24 02:14:16;;;;;;;1.20;1.10;;;10.80;99.90;;;;;;5113249;28;20186;-71
2023/12/24 02:16:43;;;;;;;1.43;1.00;;;10.70;99.90;;;;;;5113036;28;20199;-72
2023/12/24 02:19:17;;;;;;;0.77;0.77;;;10.70;99.90;;;;;;5113270;28;20220;-72
2023/12/24 02:21:43;;;;;;;1.70;1.03;;;10.70;99.90;;;;;;5116981;28;20175;-71
2023/12/24 02:24:09;;;;;;;1.13;1.00;;;10.70;99.90;;;;;;5116377;28;20579;-70
2023/12/24 02:26:40;;;;;;;0.97;0.97;;;10.70;99.90;;;;;;5117004;28;20167;-70
2023/12/24 02:29:13;;;;;;;1.73;0.77;;;10.60;99.90;;;;;;5116518;28;20251;-71
2023/12/24 02:31:45;;;;;;;1.30;1.20;;;10.60;99.90;;;;;;5116794;28;20163;-69
2023/12/24 02:34:14;;;;;;;1.17;1.03;;;10.60;99.90;;;;;;5116811;28;20366;-70
2023/12/24 02:36:40;;;;;;;1.90;1.00;;;10.60;99.90;;;;;;5116812;28;20247;-71
2023/12/24 02:39:06;;;;;;;2.00;1.03;;;10.60;99.90;;;;;;5116425;28;20171;-70
2023/12/24 02:41:31;;;;;;;1.20;1.00;;;10.50;99.90;;;;;;5116703;28;20210;-70
2023/12/24 02:43:57;;;;;;;1.37;1.20;;;10.50;99.90;;;;;;5116514;28;20300;-71
2023/12/24 02:46:22;;;;;;;1.23;1.00;;;10.60;99.90;;;;;;5116406;28;20524;-71
2023/12/24 02:48:48;;;;;;;1.33;0.90;;;10.60;99.90;;;;;;5116360;28;20171;-71
2023/12/24 02:51:14;;;;;;;1.77;0.80;;;10.50;99.90;;;;;;5116550;28;20167;-70
2023/12/24 02:53:39;;;;;;;0.90;0.80;;;10.60;99.90;;;;;;5115950;28;20193;-71
2023/12/24 02:56:05;;;;;;;0.80;0.80;;;10.60;99.90;;;;;;5116292;28;20581;-71
2023/12/24 02:58:30;;;;;;;1.23;1.00;;;10.50;99.90;;;;;;5116292;28;20171;-71
2023/12/24 03:00:56;;;;;;;2.03;0.80;;;10.50;99.90;;;;;;5116346;28;20254;-71
2023/12/24 03:03:21;;;;;;;0.90;0.90;;;10.50;99.90;;;;;;5116153;28;20598;-71
2023/12/24 03:05:47;;;;;;;0.70;0.70;;;10.50;99.90;;;;;;5115928;28;20559;-71
2023/12/24 03:08:14;;;;;;;0.80;0.80;;;10.50;99.90;;;;;;5115748;28;20171;-71
2023/12/24 03:10:40;;;;;;;1.87;1.17;;;10.60;99.90;;;;;;5115870;28;20220;-71
2023/12/24 03:13:05;;;;;;;1.10;0.83;;;10.60;99.90;;;;;;5115883;28;20199;-70
2023/12/24 03:15:31;;;;;;;2.30;1.00;;;10.50;99.90;;;;;;5115741;28;20186;-71
2023/12/24 03:17:56;;;;;;;3.13;0.87;;;10.50;99.90;;;;;;5097491;28;20221;-71
2023/12/24 03:20:22;;;;;;;1.40;0.80;;;10.60;99.90;;;;;;5115817;28;20194;-71
2023/12/24 03:22:47;;;;;;;1.07;0.90;;;10.60;99.90;;;;;;5115401;28;20645;-70
2023/12/24 03:25:13;;;;;;;1.23;0.97;;;10.60;99.90;;;;;;5115855;28;20171;-71
2023/12/24 03:27:38;;;;;;;1.00;0.90;;;10.60;99.90;;;;;;5115534;28;20219;-71
2023/12/24 03:30:05;;;;;;;0.70;0.70;;;10.60;99.90;;;;;;5115675;28;20246;-71
2023/12/24 03:32:30;;;;;;;1.43;0.90;;;10.60;99.90;;;;;;5095967;28;20183;-70
2023/12/24 03:34:56;;;;;;;2.33;1.00;;;10.60;99.90;;;;;;5115324;28;20550;-71
2023/12/24 03:37:21;;;;;;;1.50;0.87;;;10.60;99.90;;;;;;5115277;28;20567;-71
2023/12/24 03:39:47;;;;;;;0.90;0.80;;;10.60;99.90;;;;;;5115639;28;20171;-70
2023/12/24 03:42:12;;;;;;;1.00;0.70;;;10.70;99.90;;;;;;5115428;28;20198;-71
2023/12/24 03:44:38;;;;;;;1.83;0.90;;;10.60;99.90;;;;;;5115322;28;20198;-70
2023/12/24 03:47:04;;;;;;;0.83;0.83;;;10.70;99.90;;;;;;5115316;28;20577;-70
2023/12/24 03:49:29;;;;;;;1.00;0.90;;;10.60;99.90;;;;;;5096881;28;20242;-71
2023/12/24 03:51:55;;;;;;;2.37;0.80;;;10.60;99.90;;;;;;5114916;28;20176;-70
2023/12/24 03:54:21;;;;;;;1.27;0.70;;;10.60;99.90;;;;;;5096762;28;20228;-70
2023/12/24 03:56:47;;;;;;;1.53;0.77;;;10.60;99.90;;;;;;5115261;28;20249;-70
2023/12/24 03:59:13;;;;;;;1.57;0.70;;;10.60;99.90;;;;;;5115279;28;20634;-70
2023/12/24 04:01:39;;;;;;;2.80;1.07;;;10.60;99.90;;;;;;5115035;28;20227;-71
2023/12/24 04:04:05;;;;;;;1.00;0.70;;;10.60;99.90;;;;;;5114745;28;20167;-71
2023/12/24 04:06:30;;;;;;;1.13;0.90;;;10.70;99.90;;;;;;5114746;28;20626;-70
2023/12/24 04:08:56;;;;;;;3.87;1.10;;;10.70;99.90;;;;;;5114900;28;20163;-70
2023/12/24 04:11:22;;;;;;;1.50;0.90;;;10.70;99.90;;;;;;5114852;28;20213;-70
2023/12/24 04:13:47;;;;;;;2.10;1.03;;;10.70;99.90;;;;;;5114548;28;20686;-71
2023/12/24 04:16:13;;;;;;;1.13;1.00;;;10.60;99.90;;;;;;5114540;28;20244;-72
2023/12/24 04:18:38;;;;;;;1.57;1.03;;;10.60;99.90;;;;;;5114408;28;20204;-70
2023/12/24 04:21:04;;;;;;;2.73;1.40;;;10.70;99.90;;;;;;5114111;28;20242;-70
2023/12/24 04:23:29;;;;;;;1.20;1.10;;;10.70;99.90;;;;;;5114299;28;20171;-70
2023/12/24 04:25:55;;;;;;;2.43;1.33;;;10.60;99.90;;;;;;5114788;28;20183;-70
2023/12/24 04:28:20;;;;;;;2.80;1.33;;;10.60;99.90;;;;;;5114195;28;20701;-70
2023/12/24 04:30:46;;;;;;;3.53;1.50;;;10.60;99.90;;;;;;5114170;28;20622;-70
2023/12/24 04:33:12;;;;;;;2.33;1.60;;;10.60;99.90;;;;;;5114264;28;20236;-70
2023/12/24 04:35:37;;;;;;;2.43;1.60;;;10.70;99.90;;;;;;5113684;28;20171;-70
2023/12/24 04:38:03;;;;;;;1.80;1.50;;;10.70;99.90;;;;;;5114499;28;20180;-70
2023/12/24 04:40:29;;;;;;;2.73;1.77;;;10.60;99.90;;;;;;5113958;28;20163;-71
2023/12/24 04:42:55;;;;;;;2.13;1.67;;;10.70;99.90;;;;;;5113802;28;20212;-70
2023/12/24 04:45:20;;;;;;;3.70;1.73;;;10.70;99.90;;;;;;5113988;28;20235;-71
2023/12/24 04:47:46;;;;;;;4.23;2.03;;;10.70;99.90;;;;;;5114189;28;20168;-71
2023/12/24 04:50:11;;;;;;;4.17;1.70;;;10.70;99.90;;;;;;5113449;28;20755;-71
2023/12/24 04:52:38;;;;;;;5.00;1.80;;;10.70;99.90;;;;;;5114030;28;20622;-70
2023/12/24 04:55:04;;;;;;;3.40;1.70;;;10.70;99.90;;;;;;5113940;28;20192;-71
2023/12/24 04:57:31;;;;;;;3.40;1.90;;;10.70;99.90;;;;;;5113396;28;20202;-71
2023/12/24 04:59:56;;;;;;;4.00;2.00;;;10.70;99.90;;;;;;5095620;28;20262;-70
2023/12/24 05:02:22;;;;;;;4.87;2.03;;;10.70;99.90;;;;;;5113797;28;20238;-71
2023/12/24 05:04:49;;;;;;;3.33;1.93;;;10.60;99.90;;;;;;5094830;28;20270;-70
2023/12/24 05:07:14;;;;;;;2.77;2.00;;;10.70;99.90;;;;;;5113245;28;20178;-70
2023/12/24 05:09:41;;;;;;;4.80;2.00;;;10.60;99.90;;;;;;5113749;28;20242;-71
2023/12/24 05:12:07;;;;;;;2.33;1.80;;;10.80;99.90;;;;;;5113402;28;20218;-71
2023/12/24 05:14:34;;;;;;;4.03;1.83;;;10.70;99.90;;;;;;5113770;28;20209;-71
2023/12/24 05:16:59;;;;;;;2.90;1.70;;;10.70;99.90;;;;;;5113572;28;20272;-71
2023/12/24 05:19:25;;;;;;;5.07;1.80;;;10.80;99.90;;;;;;5113460;28;20164;-71
2023/12/24 05:21:52;;;;;;;4.00;1.90;;;10.80;99.90;;;;;;5113355;28;20634;-72
2023/12/24 05:24:17;;;;;;;3.30;1.90;;;10.70;99.90;;;;;;5113314;28;20220;-71
2023/12/24 05:26:43;;;;;;;3.87;1.67;;;10.70;99.90;;;;;;5113285;28;20262;-70
2023/12/24 05:29:08;;;;;;;2.53;1.60;;;10.70;99.90;;;;;;5113297;28;20210;-70
2023/12/24 05:31:38;;;;;;;2.33;1.33;;;10.70;99.90;;;;;;5113584;28;20525;-70
2023/12/24 05:34:04;;;;;;;2.63;1.77;;;10.70;99.90;;;;;;5113087;28;20218;-72
2023/12/24 05:36:32;;;;;;;2.40;1.10;;;10.70;99.90;;;;;;5113357;28;20343;-71
2023/12/24 05:38:58;;;;;;;4.83;1.80;;;10.80;99.90;;;;;;5113481;28;20275;-70
2023/12/24 05:41:24;;;;;;;3.53;1.40;;;10.70;99.90;;;;;;5113251;28;20620;-71
2023/12/24 05:43:49;;;;;;;1.80;1.40;;;10.70;99.90;;;;;;5113023;28;20203;-71
2023/12/24 05:46:15;;;;;;;2.90;1.17;;;10.70;99.90;;;;;;5113186;28;20216;-71
2023/12/24 05:48:41;;;;;;;4.63;1.60;;;10.80;99.90;;;;;;5112774;28;20167;-70
2023/12/24 05:51:07;;;;;;;2.47;1.40;;;10.70;99.90;;;;;;5113397;28;20181;-71
2023/12/24 05:53:32;;;;;;;2.03;1.30;;;10.70;99.90;;;;;;5113107;28;20259;-71
2023/12/24 05:55:59;;;;;;;1.93;1.20;;;10.80;99.90;;;;;;5097838;28;20207;-71
2023/12/24 05:58:25;;;;;;;2.37;1.30;;;10.80;99.90;;;;;;5116871;28;20174;-71
2023/12/24 06:00:51;;;;;;;3.30;1.40;;;10.80;99.90;;;;;;5116964;28;20509;-71
2023/12/24 06:03:17;;;;;;;1.50;1.30;;;10.70;99.90;;;;;;5117080;28;20175;-70
2023/12/24 06:05:42;;;;;;;2.10;1.23;;;10.80;99.90;;;;;;5117003;28;20163;-71
2023/12/24 06:08:08;;;;;;;1.90;1.23;;;10.70;99.90;;;;;;5116934;28;20186;-70
2023/12/24 06:10:34;;;;;;;2.30;1.40;;;10.80;99.90;;;;;;5117099;28;20638;-70
2023/12/24 06:13:00;;;;;;;2.47;1.50;;;10.80;99.90;;;;;;5116634;28;20184;-70
2023/12/24 06:15:26;;;;;;;1.57;1.47;;;10.70;99.90;;;;;;5116446;28;20254;-71
2023/12/24 06:17:51;;;;;;;2.57;1.30;;;10.90;99.90;;;;;;5116697;28;20206;-70
2023/12/24 06:20:17;;;;;;;2.30;1.53;;;10.70;99.90;;;;;;5116668;28;20551;-71
2023/12/24 06:22:42;;;;;;;2.17;1.63;;;10.70;99.90;;;;;;5116708;28;20167;-71
2023/12/24 06:25:08;;;;;;;1.50;1.23;;;10.80;99.90;;;;;;5116515;28;20174;-70
2023/12/24 06:27:34;;;;;;;2.77;1.60;;;10.80;99.90;;;;;;5116441;28;20309;-71
2023/12/24 06:30:00;;;;;;;2.33;1.50;;;10.80;99.90;;;;;;5116444;28;20626;-71
2023/12/24 06:32:25;;;;;;;3.03;1.60;;;10.80;99.90;;;;;;5116566;28;20182;-70
2023/12/24 06:34:51;;;;;;;1.80;1.53;;;10.70;99.90;;;;;;5116522;28;20260;-69
2023/12/24 06:37:16;;;;;;;2.77;1.83;;;10.80;99.90;;;;;;5116563;28;20225;-70
2023/12/24 06:39:42;;;;;;;4.73;1.93;;;10.80;99.90;;;;;;5116637;28;20176;-70
2023/12/24 06:42:07;;;;;;;2.03;1.57;;;10.80;99.90;;;;;;5116201;28;20175;-70
2023/12/24 06:44:33;;;;;;;2.07;1.87;;;10.80;99.90;;;;;;5115822;28;20167;-70
2023/12/24 06:46:59;;;;;;;5.40;2.30;;;10.80;99.90;;;;;;5116449;28;20198;-71
2023/12/24 06:49:24;;;;;;;2.33;2.13;;;10.80;99.90;;;;;;5115904;28;20251;-70
2023/12/24 06:51:50;;;;;;;4.00;2.00;;;10.80;99.90;;;;;;5116264;28;20171;-70
2023/12/24 06:54:15;;;;;;;4.97;2.27;;;10.80;99.90;;;;;;5116084;28;20621;-71
2023/12/24 06:56:42;;;;;;;3.20;2.30;;;10.80;99.90;;;;;;5115531;28;20717;-71
2023/12/24 06:59:07;;;;;;;2.70;2.13;;;10.80;99.90;;;;;;5097338;28;20233;-70
2023/12/24 07:01:33;;;;;;;3.33;2.10;;;10.90;99.90;;;;;;5115710;28;20311;-71
2023/12/24 07:03:59;;;;;;;3.77;2.40;;;10.80;99.90;;;;;;5116218;28;20170;-71
2023/12/24 07:06:24;;;;;;;2.30;2.10;;;10.90;99.90;;;;;;5115405;28;20164;-71
2023/12/24 07:08:51;;;;;;;2.33;1.90;;;10.80;99.90;;;;;;5115822;28;20163;-71
2023/12/24 07:11:17;;;;;;;2.53;2.10;;;10.80;99.90;;;;;;5115514;28;20512;-70
2023/12/24 07:13:43;;;;;;;2.60;2.00;;;10.80;99.90;;;;;;5115380;28;20195;-71
2023/12/24 07:16:08;;;;;;;2.30;2.10;;;10.80;99.90;;;;;;5115791;28;20662;-70
2023/12/24 07:18:34;;;;;;;4.27;2.40;;;10.80;99.90;;;;;;5097340;28;20163;-70
2023/12/24 07:21:00;;;;;;;6.77;2.77;;;10.90;99.90;;;;;;5115181;28;20167;-71
2023/12/24 07:23:25;;;;;;;2.70;2.33;;;10.80;99.90;;;;;;5115417;28;20614;-70
2023/12/24 07:25:51;;;;;;;2.50;2.30;;;10.80;99.90;;;;;;5115686;28;20175;-71
2023/12/24 07:28:16;;;;;;;3.10;2.90;;;10.80;99.90;;;;;;5114211;28;20242;-72
2023/12/24 07:30:42;;;;;;;4.37;2.47;;;10.80;99.90;;;;;;5115413;28;20689;-71
2023/12/24 07:33:07;;;;;;;4.70;3.60;;;10.80;99.90;;;;;;5115608;28;20630;-70
2023/12/24 07:35:33;;;;;;;3.47;3.17;;;10.90;99.90;;;;;;5115132;28;20178;-70
2023/12/24 07:37:58;;;;;;;5.53;3.80;;;10.90;99.90;;;;;;5115330;28;20238;-70
2023/12/24 07:40:24;;;;;;;4.07;3.37;;;10.90;99.90;;;;;;5096943;28;20626;-71
2023/12/24 07:42:50;;;;;;;6.43;4.03;;;10.90;99.90;;;;;;5114338;28;20179;-71
2023/12/24 07:45:16;;;;;;;6.23;3.87;;;11.00;99.90;;;;;;5114632;28;20183;-71
2023/12/24 07:47:42;;;;;;;4.57;4.17;;;11.00;99.90;;;;;;5115069;28;20207;-70
2023/12/24 07:50:07;;;;;;;5.03;4.00;;;11.00;99.90;;;;;;5114493;28;20175;-70
2023/12/24 07:52:33;;;;;;;9.33;4.20;;;11.00;99.90;;;;;;5114779;28;20182;-71
2023/12/24 07:54:59;;;;;;;5.90;4.00;;;11.00;99.90;;;;;;5096741;28;20167;-70
2023/12/24 07:57:24;;;;;;;6.13;4.27;;;11.00;99.90;;;;;;5113669;28;20745;-71
2023/12/24 07:59:50;;;;;;;6.73;4.37;;;11.00;99.90;;;;;;5114964;28;20213;-70
2023/12/24 08:02:15;;;;;;;5.33;4.20;;;11.10;99.90;;;;;;5114849;28;20198;-70
2023/12/24 08:04:43;;;;;;;4.80;3.93;;;11.10;99.90;;;;;;5114484;28;20653;-71
2023/12/24 08:07:09;;;;;;;4.47;4.03;;;11.10;99.90;;;;;;5114778;28;20257;-70
2023/12/24 08:09:34;;;;;;;5.93;4.20;;;11.20;99.90;;;;;;5114334;28;20198;-71
2023/12/24 08:12:00;;;;;;;4.37;3.70;;;11.10;99.90;;;;;;5113992;28;20206;-71
2023/12/24 08:14:25;;;;;;;8.60;4.00;;;11.10;99.90;;;;;;5114315;28;20199;-71
2023/12/24 08:16:51;;;;;;;4.83;4.20;;;11.20;99.90;;;;;;5114242;28;20275;-70
2023/12/24 08:19:16;;;;;;;5.03;4.10;;;11.20;99.90;;;;;;5113931;28;20280;-72
2023/12/24 08:21:42;;;;;;;4.90;3.73;;;11.20;99.90;;;;;;5114153;28;20177;-71
2023/12/24 08:24:08;;;;;;;5.37;3.87;;;11.20;99.90;;;;;;5114198;28;20176;-71
2023/12/24 08:26:34;;;;;;;5.83;3.80;;;11.20;99.90;;;;;;5113937;28;20262;-70
2023/12/24 08:28:59;;;;;;;5.87;3.90;;;11.20;99.90;;;;;;5114385;28;20641;-71
2023/12/24 08:31:25;;;;;;;5.97;3.97;;;11.20;99.90;;;;;;5114516;28;20175;-71
2023/12/24 08:33:51;;;;;;;5.13;3.70;;;11.20;99.90;;;;;;5113703;28;20220;-71
2023/12/24 08:36:16;;;;;;;5.27;4.00;;;11.30;99.90;;;;;;5113874;28;20564;-71
2023/12/24 08:38:42;;;;;;;4.73;3.13;;;11.30;99.90;;;;;;5113880;28;20228;-71
2023/12/24 08:41:08;;;;;;;4.67;3.40;;;11.30;99.90;;;;;;5112924;28;20182;-71
2023/12/24 08:43:33;;;;;;;6.40;3.43;;;11.30;99.90;;;;;;5114049;28;20246;-71
2023/12/24 08:46:00;;;;;;;4.47;3.27;;;11.20;99.90;;;;;;5095623;28;20626;-71
2023/12/24 08:48:26;;;;;;;5.30;3.40;;;11.30;99.90;;;;;;5113599;28;20225;-71
2023/12/24 08:50:52;;;;;;;5.57;3.80;;;11.30;99.90;;;;;;5113924;28;20198;-71
2023/12/24 08:53:17;;;;;;;8.33;3.30;;;11.30;99.90;;;;;;5095424;28;20206;-70
2023/12/24 08:55:43;;;;;;;4.20;3.80;;;11.40;99.90;;;;;;5113446;28;20202;-70
2023/12/24 08:58:08;;;;;;;3.60;3.27;;;11.40;99.90;;;;;;5113552;28;20182;-70
2023/12/24 09:00:34;;;;;;;5.30;3.47;;;11.40;99.90;;;;;;5113612;28;20198;-70
2023/12/24 09:03:00;;;;;;;4.93;3.47;;;11.40;99.90;;;;;;5113828;28;20163;-70
2023/12/24 09:05:26;;;;;;;7.57;3.67;;;11.40;99.90;;;;;;5094708;28;20251;-70
2023/12/24 09:07:51;;;;;;;3.43;3.00;;;11.50;99.90;;;;;;5113739;28;20622;-71
2023/12/24 09:10:17;;;;;;;4.13;3.50;;;11.50;99.90;;;;;;5113063;28;20572;-70
2023/12/24 09:12:43;;;;;;;5.67;3.50;;;11.50;99.90;;;;;;5113169;28;20590;-70
2023/12/24 09:15:09;;;;;;;5.03;3.47;;;11.50;99.90;;;;;;5113219;28;20167;-71
2023/12/24 09:17:35;;;;;;;5.87;3.90;;;11.50;99.90;;;;;;5113142;28;20554;-70
2023/12/24 09:20:00;;;;;;;4.93;3.40;;;11.50;99.90;;;;;;5113345;28;20163;-71
2023/12/24 09:22:26;;;;;;;4.57;3.40;;;11.60;99.90;;;;;;5113597;28;20171;-71
2023/12/24 09:24:51;;;;;;;4.23;3.63;;;11.60;99.90;;;;;;5112352;28;20171;-71
2023/12/24 09:27:17;;;;;;;5.27;3.40;;;11.60;99.90;;;;;;5112883;28;20215;-71
2023/12/24 09:29:42;;;;;;;5.13;3.43;;;11.60;99.90;;;;;;5115956;28;20167;-71
2023/12/24 09:32:09;;;;;;;6.03;3.80;;;11.70;99.90;;;;;;5117320;28;20175;-71
2023/12/24 09:34:34;;;;;;;8.37;3.80;;;11.70;99.90;;;;;;5117767;28;20205;-70
2023/12/24 09:37:00;;;;;;;7.07;4.60;;;11.60;99.90;;;;;;5117372;28;20206;-70
2023/12/24 09:39:25;;;;;;;5.87;3.80;;;11.70;99.90;;;;;;5116808;28;20171;-70
2023/12/24 09:41:53;;;;;;;8.77;6.27;;;11.70;99.90;;;;;;5117525;28;20250;-71
2023/12/24 09:44:18;;;;;;;5.97;4.30;;;11.80;99.90;;;;;;5116980;28;20220;-71
2023/12/24 09:46:44;;;;;;;5.63;4.00;;;11.80;99.90;;;;;;5117463;28;20193;-71
2023/12/24 09:49:10;;;;;;;5.30;4.10;;;11.80;99.90;;;;;;5117105;28;20638;-71
2023/12/24 09:51:36;;;;;;;6.77;3.93;;;11.90;99.90;;;;;;5116964;28;20622;-71
2023/12/24 09:54:02;;;;;;;8.80;4.40;;;11.80;99.90;;;;;;5117005;28;20171;-71
2023/12/24 09:56:28;;;;;;;4.17;3.87;;;11.80;99.90;;;;;;5116588;28;20195;-71
2023/12/24 09:58:54;;;;;;;5.57;3.93;;;11.90;99.90;;;;;;5117060;28;20171;-71
2023/12/24 10:01:19;;;;;;;4.10;3.80;;;11.90;99.90;;;;;;5117030;28;20629;-71
2023/12/24 10:03:45;;;;;;;4.20;3.80;;;11.80;99.90;;;;;;5116921;28;20182;-72
2023/12/24 10:06:10;;;;;;;3.83;3.30;;;11.90;99.90;;;;;;5116643;28;20171;-71
2023/12/24 10:08:37;;;;;;;6.63;4.00;;;11.90;99.90;;;;;;5116636;28;20691;-71
2023/12/24 10:11:23;;;;;;;5.67;3.97;;;11.90;99.90;;;;;;5116992;28;20171;-71
2023/12/24 10:14:00;;;;;;;3.90;3.40;;;11.90;99.90;;;;;;5116290;28;20253;-71
2023/12/24 10:16:27;;;;;;;5.77;4.07;;;11.90;99.90;;;;;;5116294;28;20309;-71
2023/12/24 10:18:55;;;;;;;4.50;4.00;;;11.90;99.90;;;;;;5116584;28;20250;-71
2023/12/24 10:21:21;;;;;;;6.67;4.27;;;11.90;99.90;;;;;;5116586;28;20171;-71
2023/12/24 10:23:47;;;;;;;5.80;4.03;;;11.90;99.90;;;;;;5115651;28;20668;-70
2023/12/24 10:26:12;;;;;;;8.43;4.03;;;11.90;99.90;;;;;;5115814;28;20163;-72
2023/12/24 10:28:49;;;;;;;7.17;4.10;;;11.80;99.90;;;;;;5116563;28;20226;-71
2023/12/24 10:31:16;;;;;;;4.07;3.67;;;11.80;99.90;;;;;;5116598;28;20629;-71
2023/12/24 10:33:42;;;;;;;8.17;4.27;;;11.80;99.90;;;;;;5116191;28;20266;-71
2023/12/24 10:36:08;;;;;;;4.73;4.27;;;11.70;99.90;;;;;;5116806;28;20711;-70
2023/12/24 10:38:35;;;;;;;5.47;3.97;;;11.80;99.90;;;;;;5116125;28;20178;-71
2023/12/24 10:41:02;;;;;;;4.47;4.07;;;11.80;99.90;;;;;;5114537;28;20311;-71
2023/12/24 10:43:28;;;;;;;5.90;4.13;;;11.80;99.90;;;;;;5116515;28;20251;-71
2023/12/24 10:45:53;;;;;;;5.30;4.20;;;11.70;99.90;;;;;;5116003;28;20199;-71
2023/12/24 10:48:19;;;;;;;4.93;4.23;;;11.70;99.90;;;;;;5115537;28;20650;-70
2023/12/24 10:50:46;;;;;;;5.30;3.90;;;11.70;99.90;;;;;;5116173;28;20545;-71
2023/12/24 10:53:13;;;;;;;3.97;3.67;;;11.70;99.90;;;;;;5115801;28;20194;-72
2023/12/24 10:55:41;;;;;;;4.70;4.30;;;11.80;99.90;;;;;;5116116;28;20649;-70
2023/12/24 10:58:48;;;;;;;5.80;3.67;;;11.70;99.90;;;;;;5115525;28;20222;-72
2023/12/24 11:01:15;;;;;;;3.90;3.60;;;11.70;99.90;;;;;;5115952;28;20206;-72
2023/12/24 11:03:59;;;;;;;4.27;3.87;;;11.80;99.90;;;;;;5115714;28;20622;-72
2023/12/24 11:06:36;;;;;;;4.50;3.70;;;11.70;99.90;;;;;;5115668;28;20181;-71
2023/12/24 11:09:05;;;;;;;3.90;3.60;;;11.70;99.90;;;;;;5115498;28;20653;-71
2023/12/24 11:11:51;;;;;;;4.57;3.63;;;11.70;99.90;;;;;;5115737;28;20202;-71
2023/12/24 11:14:44;;;;;;;3.57;3.33;;;11.70;99.90;;;;;;5115845;28;20163;-71
2023/12/24 11:17:29;;;;;;;5.77;3.87;;;11.70;99.90;;;;;;5115084;28;20191;-71
2023/12/24 11:19:54;;;;;;;3.63;3.33;;;11.60;99.90;;;;;;5115636;28;20174;-71
2023/12/24 11:22:22;;;;;;;4.33;3.43;;;11.70;99.90;;;;;;5115617;28;20168;-71
2023/12/24 11:24:47;;;;;;;7.07;3.10;;;11.70;99.90;;;;;;5115094;28;20164;-71
2023/12/24 11:27:14;;;;;;;3.53;3.23;;;11.70;99.90;;;;;;5115122;28;21059;-72
2023/12/24 11:29:47;;;;;;;3.53;3.27;;;11.70;99.90;;;;;;5115477;28;20179;-71
2023/12/24 11:32:25;;;;;;;6.33;3.10;;;11.70;99.90;;;;;;5115651;28;20247;-71
2023/12/24 11:34:52;;;;;;;3.47;3.17;;;11.60;99.90;;;;;;5115194;28;20199;-72
2023/12/24 11:37:27;;;;;;;3.57;3.27;;;11.70;99.90;;;;;;5114631;28;20207;-71
2023/12/24 11:40:01;;;;;;;3.83;3.53;;;11.60;99.90;;;;;;5114488;28;20174;-72
2023/12/24 11:42:39;;;;;;;4.50;3.63;;;11.60;99.90;;;;;;5115439;28;20167;-71
2023/12/24 11:45:06;;;;;;;3.67;2.90;;;11.60;99.90;;;;;;5096726;28;20169;-71
2023/12/24 11:47:31;;;;;;;4.00;3.23;;;11.60;99.90;;;;;;5114725;28;20699;-72
2023/12/24 11:49:59;;;;;;;3.40;3.10;;;11.80;99.90;;;;;;5113678;28;20167;-72
2023/12/24 11:52:26;;;;;;;3.63;3.23;;;11.70;99.90;;;;;;5113501;28;20171;-72
2023/12/24 11:54:52;;;;;;;3.90;3.60;;;11.60;99.90;;;;;;5114814;28;20274;-71
2023/12/24 11:57:25;;;;;;;4.13;3.83;;;11.60;99.90;;;;;;5114453;28;20220;-71
2023/12/24 11:59:50;;;;;;;3.93;3.53;;;11.70;99.90;;;;;;5114336;28;20178;-72
2023/12/24 12:02:16;;;;;;;4.13;3.77;;;11.70;99.90;;;;;;5114464;28;20171;-72
2023/12/24 12:04:41;;;;;;;4.90;3.43;;;11.80;99.90;;;;;;5114658;28;20641;-72
2023/12/24 12:07:08;;;;;;;6.37;5.70;;;11.90;99.90;;;;;;5114637;28;20510;-72
2023/12/24 12:09:33;;;;;;;7.43;6.87;;;11.90;99.90;;;;;;5095975;28;20361;-72
2023/12/24 12:11:59;;;;;;;3.77;3.50;;;11.90;99.90;;;;;;5114198;28;20290;-71
2023/12/24 12:14:25;;;;;;;4.57;3.83;;;12.00;99.90;;;;;;5114373;28;20187;-71
2023/12/24 12:16:50;;;;;;;10.20;9.30;;;12.10;99.90;;;;;;5114374;28;20210;-71
2023/12/24 12:19:16;;;;;;;6.57;5.97;;;12.10;99.90;;;;;;5113920;28;20497;-71
2023/12/24 12:21:43;;;;;;;5.60;4.47;;;12.20;99.90;;;;;;5113972;28;20658;-71
2023/12/24 12:24:09;;;;;;;5.90;5.47;;;12.30;99.90;;;;;;5114026;28;20173;-71
2023/12/24 12:26:35;;;;;;;4.10;3.87;;;12.30;99.90;;;;;;5114261;28;20253;-71
2023/12/24 12:29:00;;;;;;;4.10;3.70;;;12.30;99.90;;;;;;5112894;28;20207;-71
2023/12/24 12:31:26;;;;;;;5.00;3.47;;;12.30;99.90;;;;;;5114108;28;20175;-71
2023/12/24 12:33:52;;;;;;;2.90;2.70;;;12.40;99.90;;;;;;5113971;28;20171;-72
2023/12/24 12:36:17;;;;;;;3.90;3.03;;;12.50;99.90;;;;;;5113685;28;20209;-72
2023/12/24 12:38:43;;;;;;;4.23;2.67;;;12.50;99.90;;;;;;5113817;28;20175;-72
2023/12/24 12:41:08;;;;;;;3.77;2.27;;;12.60;99.90;;;;;;5113847;28;20621;-71
2023/12/24 12:43:34;;;;;;;4.77;1.93;;;12.70;99.90;;;;;;5113888;28;20669;-71